Time;durP1;ratioP1;P1;durP2;ratioP2;P2;SDS_P1;SDS_P2;PMS_P1;PMS_P2;Temp;Humidity;BMP_temperature;BMP_pressure;BME280_temperature;BME280_humidity;BME280_pressure;Samples;Min_cycle;Max_cycle;Signal;HPM_P1;HPM_P2
2022/04/19 00:01:05;;;;;;;12.00;2.33;;;;;;;;;;4982477;28;20062;-67
2022/04/19 00:03:32;;;;;;;9.23;1.90;;;;;;;;;;4990730;28;20034;-67
2022/04/19 00:05:57;;;;;;;9.48;2.08;;;;;;;;;;4996061;28;20050;-67
2022/04/19 00:08:22;;;;;;;7.75;1.95;;;;;;;;;;5010996;28;20034;-67
2022/04/19 00:10:48;;;;;;;11.25;1.80;;;;;;;;;;5004394;28;20113;-67
2022/04/19 00:13:17;;;;;;;8.25;2.03;;;;;;;;;;4979971;28;20039;-67
2022/04/19 00:15:43;;;;;;;5.30;1.52;;;;;;;;;;4977720;28;20363;-67
2022/04/19 00:18:09;;;;;;;4.95;1.98;;;;;;;;;;4978662;28;20105;-67
2022/04/19 00:20:35;;;;;;;4.13;1.33;;;;;;;;;;4985574;28;20040;-67
2022/04/19 00:23:03;;;;;;;8.02;2.10;;;;;;;;;;4994709;28;20385;-68
2022/04/19 00:25:28;;;;;;;5.53;1.83;;;;;;;;;;4992628;28;20023;-67
2022/04/19 00:27:54;;;;;;;6.75;1.85;;;;;;;;;;4993489;28;20129;-67
2022/04/19 00:30:19;;;;;;;8.57;2.00;;;;;;;;;;4986676;28;20138;-67
2022/04/19 00:32:45;;;;;;;9.13;1.92;;;;;;;;;;5010252;28;20034;-67
2022/04/19 00:35:11;;;;;;;11.98;2.20;;;;;;;;;;4995528;28;20085;-67
2022/04/19 00:37:37;;;;;;;9.73;2.00;;;;;;;;;;4990724;28;20023;-67
2022/04/19 00:40:04;;;;;;;6.35;2.10;;;;;;;;;;4977268;28;20034;-67
2022/04/19 00:42:31;;;;;;;6.97;2.28;;;;;;;;;;4978641;28;20051;-67
2022/04/19 00:44:58;;;;;;;6.35;1.63;;;;;;;;;;4976751;28;20451;-67
2022/04/19 00:47:24;;;;;;;11.32;2.10;;;;;;;;;;4977933;28;20137;-67
2022/04/19 00:49:49;;;;;;;7.40;1.60;;;;;;;;;;4986959;28;20144;-67
2022/04/19 00:52:15;;;;;;;7.82;1.65;;;;;;;;;;4994626;28;20038;-67
2022/04/19 00:54:41;;;;;;;5.95;1.90;;;;;;;;;;4997219;28;20035;-67
2022/04/19 00:57:07;;;;;;;8.98;1.95;;;;;;;;;;4992677;28;20506;-67
2022/04/19 00:59:33;;;;;;;5.60;1.90;;;;;;;;;;4979570;28;20026;-67
2022/04/19 01:01:59;;;;;;;6.07;2.10;;;;;;;;;;4994984;28;20438;-67
2022/04/19 01:04:25;;;;;;;9.95;2.92;;;;;;;;;;4985576;28;20039;-67
2022/04/19 01:06:50;;;;;;;7.53;1.88;;;;;;;;;;4977744;28;20463;-67
2022/04/19 01:09:16;;;;;;;6.43;1.45;;;;;;;;;;4976455;28;20462;-67
2022/04/19 01:14:25;;;;;;;;;;;;;;;;;;4989630;28;20059;-67
2022/04/19 01:16:51;;;;;;;3.50;1.67;;;;;;;;;;4988875;28;19917;-67
2022/04/19 01:19:16;;;;;;;5.18;1.60;;;;;;;;;;4995375;28;20035;-67
2022/04/19 01:21:54;;;;;;;5.88;1.58;;;;;;;;;;4994404;28;20404;-67
2022/04/19 01:24:21;;;;;;;7.03;1.58;;;;;;;;;;4984768;28;20102;-67
2022/04/19 01:26:48;;;;;;;10.57;1.80;;;;;;;;;;4979071;28;20046;-67
2022/04/19 01:29:15;;;;;;;9.93;1.50;;;;;;;;;;4995064;28;20045;-67
2022/04/19 01:31:42;;;;;;;4.38;1.60;;;;;;;;;;4977501;28;20034;-67
2022/04/19 01:34:08;;;;;;;3.80;1.58;;;;;;;;;;4980433;28;20351;-67
2022/04/19 01:36:35;;;;;;;7.18;1.90;;;;;;;;;;4977264;28;20430;-67
2022/04/19 01:39:03;;;;;;;7.88;1.60;;;;;;;;;;4976136;28;20125;-67
2022/04/19 01:41:28;;;;;;;3.83;1.42;;;;;;;;;;4979219;28;20030;-67
2022/04/19 01:43:54;;;;;;;7.55;1.45;;;;;;;;;;4995519;28;20043;-67
2022/04/19 01:46:19;;;;;;;3.35;1.50;;;;;;;;;;4993771;28;20466;-67
2022/04/19 01:48:44;;;;;;;12.68;2.00;;;;;;;;;;4992710;28;20034;-67
2022/04/19 01:51:12;;;;;;;4.97;1.48;;;;;;;;;;4977022;28;20081;-67
2022/04/19 01:53:37;;;;;;;3.33;1.60;;;;;;;;;;4980880;28;20088;-67
2022/04/19 01:56:03;;;;;;;4.03;1.33;;;;;;;;;;4994201;28;20030;-67
2022/04/19 01:58:28;;;;;;;7.30;1.10;;;;;;;;;;4994735;28;20517;-68
2022/04/19 02:00:53;;;;;;;3.63;1.33;;;;;;;;;;4986750;28;20030;-68
2022/04/19 02:03:19;;;;;;;9.60;1.83;;;;;;;;;;4991757;28;20133;-67
2022/04/19 02:05:46;;;;;;;8.23;1.65;;;;;;;;;;4995033;28;20038;-67
2022/04/19 02:08:11;;;;;;;8.18;1.67;;;;;;;;;;4993361;28;20038;-67
2022/04/19 02:10:36;;;;;;;5.45;1.55;;;;;;;;;;5002722;28;20474;-67
2022/04/19 02:13:03;;;;;;;8.90;1.48;;;;;;;;;;4978108;28;20407;-67
2022/04/19 02:15:29;;;;;;;4.78;1.60;;;;;;;;;;4975628;28;20034;-67
2022/04/19 02:17:54;;;;;;;3.00;1.25;;;;;;;;;;4976473;28;20118;-67
2022/04/19 02:20:19;;;;;;;7.80;1.38;;;;;;;;;;4975392;28;20035;-67
2022/04/19 02:22:46;;;;;;;6.75;1.23;;;;;;;;;;4976392;28;20113;-67
2022/04/19 02:25:13;;;;;;;8.63;1.20;;;;;;;;;;4993124;28;20374;-67
2022/04/19 02:27:40;;;;;;;6.80;1.60;;;;;;;;;;5007982;28;20038;-67
2022/04/19 02:30:13;;;;;;;4.68;1.10;;;;;;;;;;4987201;28;20045;-67
2022/04/19 02:32:48;;;;;;;2.23;1.20;;;;;;;;;;4976357;28;20114;-67
2022/04/19 02:35:17;;;;;;;2.78;1.30;;;;;;;;;;4983286;28;20144;-67
2022/04/19 02:37:53;;;;;;;7.13;1.30;;;;;;;;;;4989894;28;20034;-67
2022/04/19 02:40:19;;;;;;;5.05;1.10;;;;;;;;;;4990157;28;20043;-67
2022/04/19 02:42:46;;;;;;;15.48;1.20;;;;;;;;;;4976143;28;20066;-68
2022/04/19 02:45:12;;;;;;;3.58;1.27;;;;;;;;;;4982476;28;20038;-67
2022/04/19 02:47:38;;;;;;;7.50;1.88;;;;;;;;;;4992760;28;20375;-67
2022/04/19 02:50:05;;;;;;;4.68;1.08;;;;;;;;;;4981218;28;20063;-67
2022/04/19 02:52:31;;;;;;;7.47;1.33;;;;;;;;;;4975885;28;20114;-67
2022/04/19 02:54:56;;;;;;;2.50;1.20;;;;;;;;;;4990325;28;20117;-67
2022/04/19 02:57:22;;;;;;;5.35;1.60;;;;;;;;;;4992609;28;20026;-67
2022/04/19 02:59:48;;;;;;;10.25;1.25;;;;;;;;;;4988544;28;20033;-67
2022/04/19 03:02:14;;;;;;;5.05;1.10;;;;;;;;;;4992659;28;20045;-67
2022/04/19 03:04:40;;;;;;;11.30;1.48;;;;;;;;;;4994290;28;20026;-67
2022/04/19 03:07:05;;;;;;;6.00;1.35;;;;;;;;;;4992422;28;20038;-67
2022/04/19 03:09:31;;;;;;;5.68;1.20;;;;;;;;;;4993762;28;20068;-67
2022/04/19 03:11:56;;;;;;;2.85;1.08;;;;;;;;;;4996224;28;20055;-67
2022/04/19 03:14:22;;;;;;;7.65;1.50;;;;;;;;;;4974729;28;20035;-67
2022/04/19 03:16:47;;;;;;;12.32;1.50;;;;;;;;;;4996151;28;20049;-67
2022/04/19 03:19:14;;;;;;;4.78;1.23;;;;;;;;;;4974406;28;20047;-67
2022/04/19 03:21:40;;;;;;;6.15;1.33;;;;;;;;;;4975217;28;20493;-67
2022/04/19 03:29:34;;;;;;;9.82;1.60;;;;;;;;;;4990592;28;20533;-67
2022/04/19 03:32:00;;;;;;;5.53;0.93;;;;;;;;;;4990263;28;20039;-67
2022/04/19 03:34:25;;;;;;;3.13;1.30;;;;;;;;;;4974467;28;20042;-67
2022/04/19 03:36:52;;;;;;;8.65;1.20;;;;;;;;;;4990513;28;20462;-67
2022/04/19 03:39:17;;;;;;;10.90;1.48;;;;;;;;;;4974845;28;20073;-67
2022/04/19 03:41:43;;;;;;;5.20;1.50;;;;;;;;;;4992122;28;20030;-67
2022/04/19 03:44:08;;;;;;;9.40;1.50;;;;;;;;;;4993883;28;20027;-67
2022/04/19 03:47:07;;;;;;;4.95;1.30;;;;;;;;;;4976045;28;20035;-67
2022/04/19 03:49:19;;;;;;;2.58;0.90;;;;;;;;;;4980205;28;20061;-67
2022/04/19 03:51:44;;;;;;;2.67;1.05;;;;;;;;;;4992023;28;20026;-67
2022/04/19 03:54:10;;;;;;;4.75;1.10;;;;;;;;;;4984154;28;20066;-67
2022/04/19 03:56:35;;;;;;;2.47;1.20;;;;;;;;;;4975383;28;20043;-67
2022/04/19 03:59:01;;;;;;;6.57;0.98;;;;;;;;;;4974377;28;20030;-67
2022/04/19 04:01:26;;;;;;;7.85;1.58;;;;;;;;;;4988091;28;20525;-67
2022/04/19 04:03:52;;;;;;;1.85;0.90;;;;;;;;;;4974365;28;20026;-67
2022/04/19 04:06:18;;;;;;;2.15;0.98;;;;;;;;;;4975257;28;20066;-67
2022/04/19 04:08:44;;;;;;;9.65;1.48;;;;;;;;;;4974222;28;20075;-67
2022/04/19 04:11:10;;;;;;;5.25;1.52;;;;;;;;;;4994946;28;20026;-67
2022/04/19 04:13:35;;;;;;;3.42;1.10;;;;;;;;;;4974302;28;20490;-67
2022/04/19 04:16:01;;;;;;;9.32;1.20;;;;;;;;;;4985166;28;20042;-67
2022/04/19 04:18:29;;;;;;;6.63;1.20;;;;;;;;;;4992315;28;20061;-67
2022/04/19 04:20:54;;;;;;;6.70;1.15;;;;;;;;;;4982335;28;20077;-67
2022/04/19 04:23:19;;;;;;;5.53;1.25;;;;;;;;;;4977370;28;20034;-67
2022/04/19 04:25:45;;;;;;;3.13;1.60;;;;;;;;;;4996696;28;20034;-67
2022/04/19 04:28:10;;;;;;;2.78;1.00;;;;;;;;;;4994912;28;20042;-67
2022/04/19 04:30:36;;;;;;;2.60;0.93;;;;;;;;;;4985738;28;20039;-67
2022/04/19 04:33:01;;;;;;;5.00;1.23;;;;;;;;;;4978417;28;20034;-67
2022/04/19 04:35:26;;;;;;;6.63;1.23;;;;;;;;;;4977156;28;20030;-67
2022/04/19 04:37:52;;;;;;;3.10;1.40;;;;;;;;;;4978350;28;20038;-67
2022/04/19 04:40:17;;;;;;;1.55;0.80;;;;;;;;;;4977442;28;20073;-67
2022/04/19 04:42:42;;;;;;;1.50;0.80;;;;;;;;;;4978361;28;20474;-67
2022/04/19 04:45:08;;;;;;;12.23;1.33;;;;;;;;;;4990285;28;20038;-67
2022/04/19 04:50:18;;;;;;;6.72;1.13;;;;;;;;;;4989342;28;20446;-67
2022/04/19 04:52:43;;;;;;;2.28;1.20;;;;;;;;;;4988940;28;20035;-67
2022/04/19 04:55:08;;;;;;;3.47;0.93;;;;;;;;;;4994084;28;20397;-67
2022/04/19 04:57:34;;;;;;;11.82;1.20;;;;;;;;;;5010021;28;20026;-67
2022/04/19 04:59:59;;;;;;;2.88;1.23;;;;;;;;;;4984225;28;20541;-68
2022/04/19 05:02:25;;;;;;;7.50;1.38;;;;;;;;;;4994740;28;20030;-66
2022/04/19 05:04:51;;;;;;;2.33;0.95;;;;;;;;;;4996063;28;20030;-67
2022/04/19 05:07:17;;;;;;;2.33;0.90;;;;;;;;;;4994630;28;20479;-67
2022/04/19 05:09:42;;;;;;;6.75;1.45;;;;;;;;;;4995644;28;20173;-68
2022/04/19 05:12:09;;;;;;;6.13;1.33;;;;;;;;;;4996943;28;20081;-67
2022/04/19 05:14:35;;;;;;;5.60;0.90;;;;;;;;;;4989114;28;20073;-67
2022/04/19 05:17:00;;;;;;;5.13;1.30;;;;;;;;;;4994511;28;20069;-67
2022/04/19 05:19:25;;;;;;;11.23;1.40;;;;;;;;;;4996205;28;20466;-67
2022/04/19 05:21:51;;;;;;;2.72;1.10;;;;;;;;;;4994291;28;20038;-67
2022/04/19 05:24:16;;;;;;;3.60;1.20;;;;;;;;;;4985434;28;20089;-67
2022/04/19 05:26:42;;;;;;;6.47;1.23;;;;;;;;;;4977468;28;20038;-67
2022/04/19 05:29:07;;;;;;;9.25;1.20;;;;;;;;;;4983078;28;20039;-67
2022/04/19 05:31:32;;;;;;;7.70;1.17;;;;;;;;;;4978121;28;20114;-67
2022/04/19 05:33:58;;;;;;;5.45;1.27;;;;;;;;;;4976386;28;20018;-67
2022/04/19 05:36:24;;;;;;;4.00;1.35;;;;;;;;;;4976864;28;20026;-67
2022/04/19 05:38:52;;;;;;;2.20;1.20;;;;;;;;;;4976295;28;20038;-67
2022/04/19 05:41:21;;;;;;;4.75;1.08;;;;;;;;;;4977329;28;20039;-67
2022/04/19 05:43:47;;;;;;;2.08;0.95;;;;;;;;;;4977698;28;20050;-67
2022/04/19 05:46:13;;;;;;;2.35;0.85;;;;;;;;;;4987116;28;20062;-67
2022/04/19 05:48:39;;;;;;;12.57;1.60;;;;;;;;;;4977623;28;20041;-67
2022/04/19 05:51:04;;;;;;;2.35;1.20;;;;;;;;;;4994325;28;20034;-67
2022/04/19 05:53:29;;;;;;;4.63;1.17;;;;;;;;;;4990863;28;20497;-67
2022/04/19 05:55:55;;;;;;;1.63;0.80;;;;;;;;;;4976087;28;20046;-67
2022/04/19 05:58:20;;;;;;;4.55;0.98;;;;;;;;;;4975730;28;20034;-67
2022/04/19 06:00:46;;;;;;;5.40;1.13;;;;;;;;;;4992687;28;20518;-67
2022/04/19 06:05:55;;;;;;;9.55;1.40;;;;;;;;;;4994674;28;20065;-68
2022/04/19 06:08:21;;;;;;;3.45;1.20;;;;;;;;;;4993276;28;20478;-67
2022/04/19 06:10:48;;;;;;;3.00;1.00;;;;;;;;;;5000585;28;20042;-67
2022/04/19 06:13:13;;;;;;;7.50;1.38;;;;;;;;;;4993126;28;20034;-67
2022/04/19 06:15:39;;;;;;;3.60;1.15;;;;;;;;;;4984549;28;20113;-67
2022/04/19 06:18:04;;;;;;;8.40;1.20;;;;;;;;;;4993341;28;20392;-67
2022/04/19 06:20:30;;;;;;;1.95;1.02;;;;;;;;;;4994320;28;20053;-68
2022/04/19 06:22:55;;;;;;;3.53;0.90;;;;;;;;;;4993279;28;20038;-68
2022/04/19 06:25:21;;;;;;;7.13;1.00;;;;;;;;;;4976048;28;20062;-67
2022/04/19 06:27:46;;;;;;;1.83;0.95;;;;;;;;;;4976362;28;20570;-67
2022/04/19 06:30:12;;;;;;;21.50;1.63;;;;;;;;;;4983828;28;20084;-67
2022/04/19 06:32:37;;;;;;;32.50;2.40;;;;;;;;;;4993221;28;20101;-68
2022/04/19 06:35:04;;;;;;;4.60;1.13;;;;;;;;;;4988856;28;20433;-68
2022/04/19 06:37:30;;;;;;;3.88;1.13;;;;;;;;;;4986667;28;20030;-68
2022/04/19 06:40:02;;;;;;;3.53;1.00;;;;;;;;;;4986760;28;20466;-68
2022/04/19 06:42:29;;;;;;;4.15;1.13;;;;;;;;;;4990162;28;20034;-67
2022/04/19 06:44:54;;;;;;;2.83;1.15;;;;;;;;;;4985459;28;20078;-68
2022/04/19 06:47:19;;;;;;;4.18;1.05;;;;;;;;;;4993876;28;20042;-68
2022/04/19 06:49:45;;;;;;;2.60;0.98;;;;;;;;;;4994687;28;20459;-68
2022/04/19 06:52:10;;;;;;;3.33;1.10;;;;;;;;;;4994172;28;20041;-68
2022/04/19 06:54:36;;;;;;;4.43;1.20;;;;;;;;;;4993687;28;20034;-68
2022/04/19 06:57:01;;;;;;;3.00;1.17;;;;;;;;;;4989313;28;20474;-69
2022/04/19 06:59:27;;;;;;;2.70;1.10;;;;;;;;;;4993447;28;20041;-68
2022/04/19 07:01:53;;;;;;;5.00;1.08;;;;;;;;;;4992124;28;20041;-68
2022/04/19 07:04:18;;;;;;;2.78;1.02;;;;;;;;;;4987368;28;20475;-68
2022/04/19 07:06:43;;;;;;;2.70;0.93;;;;;;;;;;4982749;28;20030;-68
2022/04/19 07:09:09;;;;;;;4.07;1.20;;;;;;;;;;4984404;28;20055;-68
2022/04/19 07:11:36;;;;;;;5.30;1.20;;;;;;;;;;5009503;28;20081;-68
2022/04/19 07:14:03;;;;;;;4.07;1.00;;;;;;;;;;4997147;28;20045;-68
2022/04/19 07:16:28;;;;;;;3.20;1.10;;;;;;;;;;4993578;28;20038;-68
2022/04/19 07:18:53;;;;;;;2.67;0.88;;;;;;;;;;4992475;28;20085;-68
2022/04/19 07:26:47;;;;;;;3.45;1.00;;;;;;;;;;4974323;28;20118;-68
2022/04/19 07:29:18;;;;;;;3.22;1.15;;;;;;;;;;4974655;28;20070;-69
2022/04/19 07:31:46;;;;;;;2.00;0.90;;;;;;;;;;4987895;28;20092;-68
2022/04/19 07:34:12;;;;;;;5.05;1.13;;;;;;;;;;4990336;28;20038;-68
2022/04/19 07:36:41;;;;;;;2.42;1.00;;;;;;;;;;4991029;28;20491;-68
2022/04/19 07:39:08;;;;;;;7.78;1.38;;;;;;;;;;4992094;28;20482;-68
2022/04/19 07:41:40;;;;;;;2.83;0.90;;;;;;;;;;4985766;28;20043;-68
2022/04/19 07:44:11;;;;;;;4.10;1.27;;;;;;;;;;4974262;28;20061;-68
2022/04/19 07:46:37;;;;;;;4.03;1.20;;;;;;;;;;4974267;28;20422;-68
2022/04/19 07:49:03;;;;;;;5.93;1.30;;;;;;;;;;4974281;28;20088;-68
2022/04/19 07:51:28;;;;;;;4.03;1.10;;;;;;;;;;4985002;28;20026;-68
2022/04/19 07:53:54;;;;;;;3.20;0.98;;;;;;;;;;4975608;28;20149;-68
2022/04/19 07:56:20;;;;;;;4.10;1.00;;;;;;;;;;4987427;28;20172;-68
2022/04/19 07:58:47;;;;;;;2.65;0.90;;;;;;;;;;4993199;28;20121;-68
2022/04/19 08:01:18;;;;;;;3.92;1.17;;;;;;;;;;4984524;28;20042;-68
2022/04/19 08:03:43;;;;;;;3.47;1.10;;;;;;;;;;4990840;28;20038;-68
2022/04/19 08:06:09;;;;;;;2.00;0.95;;;;;;;;;;4990751;28;20378;-68
2022/04/19 08:08:34;;;;;;;5.30;1.17;;;;;;;;;;4994063;28;20097;-68
2022/04/19 08:11:00;;;;;;;3.63;1.08;;;;;;;;;;4993941;28;20456;-69
2022/04/19 08:13:25;;;;;;;4.53;1.30;;;;;;;;;;4991771;28;20029;-69
2022/04/19 08:15:51;;;;;;;2.20;1.00;;;;;;;;;;4993949;28;20032;-68
2022/04/19 08:18:18;;;;;;;3.95;1.10;;;;;;;;;;4992404;28;20430;-68
2022/04/19 08:20:44;;;;;;;2.88;1.08;;;;;;;;;;4994373;28;20472;-69
2022/04/19 08:23:10;;;;;;;3.75;1.00;;;;;;;;;;4994433;28;20026;-68
2022/04/19 08:25:36;;;;;;;4.75;1.77;;;;;;;;;;4994370;28;20062;-68
2022/04/19 08:28:02;;;;;;;4.97;1.00;;;;;;;;;;4994292;28;20038;-69
2022/04/19 08:30:28;;;;;;;3.85;1.20;;;;;;;;;;5009934;28;20034;-69
2022/04/19 08:32:53;;;;;;;7.20;1.20;;;;;;;;;;4994416;28;20450;-68
2022/04/19 08:35:19;;;;;;;3.65;1.02;;;;;;;;;;4994392;28;20367;-68
2022/04/19 08:37:45;;;;;;;4.10;1.10;;;;;;;;;;4993677;28;20026;-68
2022/04/19 08:40:12;;;;;;;4.05;1.20;;;;;;;;;;4993918;28;20034;-68
2022/04/19 08:42:41;;;;;;;2.80;1.02;;;;;;;;;;5007468;28;20030;-68
2022/04/19 08:45:08;;;;;;;3.17;1.02;;;;;;;;;;4990530;28;20057;-69
2022/04/19 08:47:41;;;;;;;3.60;1.38;;;;;;;;;;5006291;28;20438;-69
2022/04/19 08:50:12;;;;;;;7.03;1.40;;;;;;;;;;4992599;28;20026;-68
2022/04/19 08:52:38;;;;;;;3.35;1.10;;;;;;;;;;4992762;28;20117;-68
2022/04/19 08:57:49;;;;;;;4.57;1.10;;;;;;;;;;4991536;28;20045;-70
2022/04/19 09:00:15;;;;;;;5.00;1.10;;;;;;;;;;4991705;28;20046;-69
2022/04/19 09:02:41;;;;;;;4.97;1.10;;;;;;;;;;4990283;28;20038;-68
2022/04/19 09:05:21;;;;;;;3.15;1.27;;;;;;;;;;4992599;28;20080;-69
2022/04/19 09:07:48;;;;;;;3.25;0.85;;;;;;;;;;4991958;28;20080;-68
2022/04/19 09:10:16;;;;;;;2.65;1.15;;;;;;;;;;4996352;28;20046;-68
2022/04/19 09:13:04;;;;;;;3.08;1.00;;;;;;;;;;5012927;28;20053;-70
2022/04/19 09:15:40;;;;;;;6.00;1.35;;;;;;;;;;5012203;28;20040;-69
2022/04/19 09:18:13;;;;;;;3.63;0.98;;;;;;;;;;5012453;28;20084;-69
2022/04/19 09:20:39;;;;;;;3.65;1.13;;;;;;;;;;5011876;28;20414;-68
2022/04/19 09:23:06;;;;;;;5.00;1.10;;;;;;;;;;5012495;28;20096;-69
2022/04/19 09:25:32;;;;;;;3.42;0.98;;;;;;;;;;5011856;28;20033;-69
2022/04/19 09:27:59;;;;;;;3.60;1.20;;;;;;;;;;5012904;28;20124;-68
2022/04/19 09:30:34;;;;;;;5.72;1.27;;;;;;;;;;5012111;28;20044;-69
2022/04/19 09:33:11;;;;;;;4.10;0.88;;;;;;;;;;5012935;28;20077;-69
2022/04/19 09:35:38;;;;;;;2.90;0.80;;;;;;;;;;4989232;28;20045;-69
2022/04/19 09:38:05;;;;;;;2.70;0.90;;;;;;;;;;4992926;28;20428;-68
2022/04/19 09:40:32;;;;;;;3.22;0.90;;;;;;;;;;5007168;28;20039;-68
2022/04/19 09:43:06;;;;;;;1.48;0.80;;;;;;;;;;4992672;28;20082;-68
2022/04/19 09:45:44;;;;;;;3.90;0.95;;;;;;;;;;4992173;28;20053;-68
2022/04/19 09:48:15;;;;;;;4.53;1.05;;;;;;;;;;4992772;28;20043;-68
2022/04/19 09:50:47;;;;;;;2.28;0.85;;;;;;;;;;4988467;28;20049;-69
2022/04/19 09:53:17;;;;;;;2.45;0.93;;;;;;;;;;4993044;28;20031;-68
2022/04/19 09:55:47;;;;;;;3.90;1.23;;;;;;;;;;4991100;28;20367;-68
2022/04/19 09:58:14;;;;;;;4.35;1.00;;;;;;;;;;4992640;28;20530;-69
2022/04/19 10:00:39;;;;;;;3.40;1.10;;;;;;;;;;4990396;28;20054;-69
2022/04/19 10:08:36;;;;;;;2.80;0.98;;;;;;;;;;4991688;28;20057;-69
2022/04/19 10:11:02;;;;;;;6.55;1.27;;;;;;;;;;5007241;28;20121;-68
2022/04/19 10:13:28;;;;;;;1.90;1.00;;;;;;;;;;4992114;28;20117;-69
2022/04/19 10:15:53;;;;;;;2.65;0.88;;;;;;;;;;4990873;28;20082;-69
2022/04/19 10:18:19;;;;;;;4.18;0.98;;;;;;;;;;4992023;28;20484;-68
2022/04/19 10:21:06;;;;;;;3.47;1.08;;;;;;;;;;4991633;28;20030;-70
2022/04/19 10:23:36;;;;;;;3.13;1.02;;;;;;;;;;4985331;28;20430;-71
2022/04/19 10:26:16;;;;;;;3.40;1.02;;;;;;;;;;4989201;28;20038;-70
2022/04/19 10:28:41;;;;;;;3.47;1.35;;;;;;;;;;4988354;28;20061;-69
2022/04/19 10:31:07;;;;;;;3.35;0.90;;;;;;;;;;4990669;28;20034;-69
2022/04/19 10:33:39;;;;;;;4.35;0.98;;;;;;;;;;4976912;28;20535;-69
2022/04/19 10:36:15;;;;;;;5.20;1.10;;;;;;;;;;4972858;28;20039;-69
2022/04/19 10:38:45;;;;;;;4.18;1.20;;;;;;;;;;4971112;28;20048;-69
2022/04/19 10:41:11;;;;;;;3.38;1.10;;;;;;;;;;4971997;28;20031;-69
2022/04/19 10:43:37;;;;;;;3.70;0.90;;;;;;;;;;4972667;28;20387;-68
2022/04/19 10:46:21;;;;;;;3.13;1.08;;;;;;;;;;4972082;28;20054;-69
2022/04/19 10:49:22;;;;;;;3.13;1.35;;;;;;;;;;4986470;28;20043;-69
2022/04/19 10:51:49;;;;;;;4.15;1.10;;;;;;;;;;4986207;28;20066;-69
2022/04/19 10:54:14;;;;;;;2.38;1.10;;;;;;;;;;4978527;28;20101;-68
2022/04/19 10:58:05;;;;;;;5.20;1.15;;;;;;;;;;4987671;28;20850;-68
2022/04/19 11:00:00;;;;;;;2.50;1.20;;;;;;;;;;4985287;28;20050;-68
2022/04/19 11:02:56;;;;;;;3.78;1.15;;;;;;;;;;4985790;28;20387;-68
2022/04/19 11:05:46;;;;;;;4.43;1.23;;;;;;;;;;4991951;28;20104;-69
2022/04/19 11:08:24;;;;;;;5.63;1.25;;;;;;;;;;4990422;28;20031;-68
2022/04/19 11:11:21;;;;;;;4.82;1.10;;;;;;;;;;4991254;28;20243;-68
2022/04/19 11:14:24;;;;;;;2.53;0.98;;;;;;;;;;4991645;28;20026;-68
2022/04/19 11:16:53;;;;;;;2.92;1.35;;;;;;;;;;4991478;28;20141;-68
2022/04/19 11:19:24;;;;;;;8.35;1.40;;;;;;;;;;4991294;28;20478;-68
2022/04/19 11:21:56;;;;;;;3.25;1.10;;;;;;;;;;4991085;28;20105;-68
2022/04/19 11:25:00;;;;;;;6.13;1.50;;;;;;;;;;4986443;28;20391;-69
2022/04/19 11:27:53;;;;;;;6.28;1.55;;;;;;;;;;5005580;28;20498;-68
2022/04/19 11:30:22;;;;;;;5.23;1.60;;;;;;;;;;4990855;28;20049;-68
2022/04/19 11:32:53;;;;;;;4.70;1.63;;;;;;;;;;4990828;28;20560;-68
2022/04/19 11:35:19;;;;;;;5.05;1.55;;;;;;;;;;4994870;28;20034;-68
2022/04/19 11:37:45;;;;;;;5.78;1.73;;;;;;;;;;4994920;28;20031;-68
2022/04/19 11:48:44;;;;;;;;;;;;;;;;;;5007428;28;20074;-69
2022/04/19 11:51:11;;;;;;;5.82;1.80;;;;;;;;;;4994048;28;20400;-69
2022/04/19 11:53:37;;;;;;;6.05;1.50;;;;;;;;;;5005920;28;20065;-68
2022/04/19 11:56:03;;;;;;;5.25;1.63;;;;;;;;;;4993866;28;20366;-69
2022/04/19 11:58:30;;;;;;;2.85;1.27;;;;;;;;;;4994119;28;20038;-68
2022/04/19 12:01:01;;;;;;;4.13;1.45;;;;;;;;;;4981246;28;20065;-69
2022/04/19 12:03:28;;;;;;;7.22;2.10;;;;;;;;;;4993028;28;20108;-68
2022/04/19 12:05:55;;;;;;;5.30;1.30;;;;;;;;;;4992503;28;20069;-69
2022/04/19 12:08:33;;;;;;;5.22;1.60;;;;;;;;;;4980777;28;20833;-68
2022/04/19 12:10:59;;;;;;;5.55;1.42;;;;;;;;;;4980352;28;20042;-68
2022/04/19 12:13:24;;;;;;;3.90;1.38;;;;;;;;;;4984812;28;20045;-69
2022/04/19 12:15:50;;;;;;;6.70;1.40;;;;;;;;;;4974257;28;20039;-69
2022/04/19 12:18:32;;;;;;;3.83;1.30;;;;;;;;;;4976217;28;20041;-69
2022/04/19 12:20:59;;;;;;;3.85;1.40;;;;;;;;;;4989137;28;20467;-68
2022/04/19 12:23:24;;;;;;;4.07;1.40;;;;;;;;;;4973713;28;20508;-69
2022/04/19 12:26:07;;;;;;;8.63;1.20;;;;;;;;;;4991587;28;20109;-68
2022/04/19 12:28:45;;;;;;;5.50;1.60;;;;;;;;;;4987438;28;20085;-68
2022/04/19 12:31:34;;;;;;;3.83;1.33;;;;;;;;;;4993622;28;20462;-68
2022/04/19 12:34:00;;;;;;;4.68;1.38;;;;;;;;;;4991805;28;20475;-68
2022/04/19 12:36:27;;;;;;;4.57;1.40;;;;;;;;;;4991119;28;20034;-68
2022/04/19 12:39:03;;;;;;;8.85;1.33;;;;;;;;;;4991514;28;20042;-69
2022/04/19 12:41:43;;;;;;;5.85;1.50;;;;;;;;;;4979288;28;20042;-69
2022/04/19 12:44:10;;;;;;;3.22;1.33;;;;;;;;;;4981989;28;20042;-69
2022/04/19 12:46:44;;;;;;;5.13;1.17;;;;;;;;;;4972423;28;20041;-68
2022/04/19 12:49:22;;;;;;;4.47;1.38;;;;;;;;;;4984191;28;20047;-68
2022/04/19 12:52:17;;;;;;;3.58;1.27;;;;;;;;;;4993066;28;20112;-69
2022/04/19 12:54:44;;;;;;;4.50;1.38;;;;;;;;;;4984363;28;20497;-68
2022/04/19 12:57:15;;;;;;;5.28;1.40;;;;;;;;;;4992914;28;20077;-68
2022/04/19 12:59:44;;;;;;;4.45;1.25;;;;;;;;;;5008393;28;20077;-68
2022/04/19 13:02:13;;;;;;;4.85;1.38;;;;;;;;;;4993092;28;20052;-68
2022/04/19 13:04:42;;;;;;;6.38;1.73;;;;;;;;;;5007949;28;20125;-68
2022/04/19 13:12:35;;;;;;;5.13;1.30;;;;;;;;;;5025082;28;20056;-68
2022/04/19 13:15:04;;;;;;;3.65;1.23;;;;;;;;;;5012732;28;20026;-69
2022/04/19 13:17:41;;;;;;;6.45;1.33;;;;;;;;;;5027353;28;20436;-68
2022/04/19 13:20:08;;;;;;;2.88;1.25;;;;;;;;;;5001803;28;20082;-68
2022/04/19 13:22:36;;;;;;;3.20;1.60;;;;;;;;;;5000766;28;20082;-69
2022/04/19 13:25:03;;;;;;;5.28;1.40;;;;;;;;;;4979366;28;20130;-70
2022/04/19 13:27:33;;;;;;;4.07;1.52;;;;;;;;;;4992174;28;20088;-69
2022/04/19 13:30:00;;;;;;;4.93;1.50;;;;;;;;;;4992804;28;20038;-68
2022/04/19 13:32:25;;;;;;;4.50;1.30;;;;;;;;;;4992279;28;20272;-68
2022/04/19 13:34:50;;;;;;;4.45;1.23;;;;;;;;;;5007524;28;20512;-68
2022/04/19 13:37:16;;;;;;;7.50;1.83;;;;;;;;;;4988197;28;20613;-68
2022/04/19 13:39:42;;;;;;;2.42;1.20;;;;;;;;;;5003820;28;20027;-70
2022/04/19 13:42:07;;;;;;;8.45;1.30;;;;;;;;;;4990846;28;20038;-69
2022/04/19 13:44:33;;;;;;;6.93;1.50;;;;;;;;;;4991732;28;20042;-68
2022/04/19 13:46:59;;;;;;;5.80;1.73;;;;;;;;;;4991320;28;20570;-68
2022/04/19 13:49:25;;;;;;;5.07;1.65;;;;;;;;;;4991019;28;20405;-68
2022/04/19 13:51:52;;;;;;;6.18;1.92;;;;;;;;;;5007096;28;20046;-68
2022/04/19 13:54:20;;;;;;;7.90;1.48;;;;;;;;;;5006708;28;20431;-68
2022/04/19 13:56:46;;;;;;;2.97;1.30;;;;;;;;;;5006318;28;20546;-68
2022/04/19 13:59:13;;;;;;;5.50;1.60;;;;;;;;;;4991731;28;20038;-69
2022/04/19 14:01:39;;;;;;;6.65;1.48;;;;;;;;;;4992047;28;20031;-68
2022/04/19 14:04:06;;;;;;;2.50;1.38;;;;;;;;;;4987719;28;20069;-68
2022/04/19 14:06:35;;;;;;;4.47;1.33;;;;;;;;;;4986585;28;20051;-68
2022/04/19 14:09:01;;;;;;;5.20;2.05;;;;;;;;;;4972066;28;20054;-68
2022/04/19 14:11:27;;;;;;;8.55;2.30;;;;;;;;;;5000188;28;20037;-68
2022/04/19 14:13:53;;;;;;;8.52;2.35;;;;;;;;;;5011438;28;20044;-69
2022/04/19 14:16:19;;;;;;;9.23;2.20;;;;;;;;;;4994931;28;20034;-68
2022/04/19 14:18:44;;;;;;;5.40;2.13;;;;;;;;;;4990850;28;20037;-69
2022/04/19 14:21:10;;;;;;;5.82;1.98;;;;;;;;;;4991294;28;20074;-69
2022/04/19 14:23:35;;;;;;;6.03;2.00;;;;;;;;;;4990995;28;20030;-69
2022/04/19 14:26:01;;;;;;;7.10;2.15;;;;;;;;;;4991620;28;20037;-69
2022/04/19 14:33:55;;;;;;;4.75;2.00;;;;;;;;;;4990726;28;20104;-68
2022/04/19 14:36:21;;;;;;;4.88;1.73;;;;;;;;;;4991030;28;20030;-68
2022/04/19 14:38:47;;;;;;;7.88;2.00;;;;;;;;;;4990559;28;20104;-68
2022/04/19 14:41:12;;;;;;;5.63;2.15;;;;;;;;;;4990814;28;20387;-69
2022/04/19 14:43:38;;;;;;;5.50;2.08;;;;;;;;;;5006343;28;20034;-68
2022/04/19 14:46:03;;;;;;;4.65;1.83;;;;;;;;;;4990735;28;20046;-69
2022/04/19 14:48:29;;;;;;;5.28;1.95;;;;;;;;;;4990360;28;20085;-68
2022/04/19 14:53:38;;;;;;;6.53;1.80;;;;;;;;;;4989851;28;20112;-69
2022/04/19 14:56:04;;;;;;;6.05;1.80;;;;;;;;;;4990514;28;20418;-68
2022/04/19 14:58:29;;;;;;;4.07;1.67;;;;;;;;;;4989832;28;20117;-69
2022/04/19 15:00:55;;;;;;;3.42;1.35;;;;;;;;;;4990444;28;20618;-68
2022/04/19 15:03:20;;;;;;;5.00;1.55;;;;;;;;;;4991211;28;20035;-69
2022/04/19 15:05:46;;;;;;;6.53;1.65;;;;;;;;;;4990808;28;20776;-69
2022/04/19 15:08:11;;;;;;;3.47;1.40;;;;;;;;;;4989523;28;20034;-68
2022/04/19 15:10:37;;;;;;;5.38;1.38;;;;;;;;;;4997584;28;20042;-68
2022/04/19 15:13:03;;;;;;;5.88;1.83;;;;;;;;;;5025212;28;20084;-68
2022/04/19 15:15:28;;;;;;;6.80;1.40;;;;;;;;;;4990000;28;20031;-68
2022/04/19 15:17:55;;;;;;;4.75;1.33;;;;;;;;;;4984414;28;20083;-68
2022/04/19 15:20:20;;;;;;;2.85;1.30;;;;;;;;;;4989788;28;20501;-68
2022/04/19 15:22:46;;;;;;;6.07;1.40;;;;;;;;;;4990216;28;20034;-68
2022/04/19 15:25:11;;;;;;;5.68;1.20;;;;;;;;;;4985380;28;20117;-69
2022/04/19 15:27:36;;;;;;;3.42;1.27;;;;;;;;;;4982173;28;20125;-68
2022/04/19 15:30:03;;;;;;;6.70;1.20;;;;;;;;;;4986465;28;20389;-68
2022/04/19 15:32:28;;;;;;;4.82;1.20;;;;;;;;;;4990124;28;20027;-68
2022/04/19 15:34:54;;;;;;;2.70;1.20;;;;;;;;;;4989782;28;20045;-68
2022/04/19 15:37:19;;;;;;;4.20;1.30;;;;;;;;;;4990248;28;20043;-68